sensor_id;sensor_type;location;lat;lon;timestamp;pressure;altitude;pressure_sealevel;temperature;humidity
46241;BME280;31961;52.416;-0.732;2022-10-28T00:01:32;100367.18;;;16.77;56.68
46241;BME280;31961;52.416;-0.732;2022-10-28T00:04:00;100368.03;;;16.41;56.76
46241;BME280;31961;52.416;-0.732;2022-10-28T00:06:30;100371.78;;;16.60;56.71
46241;BME280;31961;52.416;-0.732;2022-10-28T00:08:58;100364.82;;;16.59;56.54
46241;BME280;31961;52.416;-0.732;2022-10-28T00:11:27;100357.66;;;16.55;56.36
46241;BME280;31961;52.416;-0.732;2022-10-28T00:13:56;100361.70;;;16.16;56.83
46241;BME280;31961;52.416;-0.732;2022-10-28T00:16:26;100364.88;;;15.37;58.39
46241;BME280;31961;52.416;-0.732;2022-10-28T00:18:55;100370.41;;;16.01;57.55
46241;BME280;31961;52.416;-0.732;2022-10-28T00:21:25;100372.64;;;15.98;57.31
46241;BME280;31961;52.416;-0.732;2022-10-28T00:23:53;100374.86;;;16.11;56.87
46241;BME280;31961;52.416;-0.732;2022-10-28T00:26:22;100374.23;;;16.13;56.66
46241;BME280;31961;52.416;-0.732;2022-10-28T00:28:51;100370.52;;;16.13;56.62
46241;BME280;31961;52.416;-0.732;2022-10-28T00:31:20;100373.47;;;16.62;56.58
46241;BME280;31961;52.416;-0.732;2022-10-28T00:33:48;100367.39;;;16.11;56.60
46241;BME280;31961;52.416;-0.732;2022-10-28T00:36:16;100368.98;;;16.34;56.61
46241;BME280;31961;52.416;-0.732;2022-10-28T00:38:46;100373.96;;;15.95;56.70
46241;BME280;31961;52.416;-0.732;2022-10-28T00:41:16;100367.34;;;15.98;56.57
46241;BME280;31961;52.416;-0.732;2022-10-28T00:43:44;100368.28;;;15.95;56.83
46241;BME280;31961;52.416;-0.732;2022-10-28T00:46:17;100365.32;;;15.91;56.96
46241;BME280;31961;52.416;-0.732;2022-10-28T00:48:49;100365.24;;;16.04;57.58
46241;BME280;31961;52.416;-0.732;2022-10-28T00:51:19;100363.42;;;16.29;57.57
46241;BME280;31961;52.416;-0.732;2022-10-28T00:53:47;100362.63;;;15.76;57.71
46241;BME280;31961;52.416;-0.732;2022-10-28T00:56:17;100362.49;;;16.31;57.61
46241;BME280;31961;52.416;-0.732;2022-10-28T00:58:45;100358.04;;;15.87;58.94
46241;BME280;31961;52.416;-0.732;2022-10-28T01:01:14;100352.32;;;15.64;58.52
46241;BME280;31961;52.416;-0.732;2022-10-28T01:03:42;100338.03;;;15.76;58.94
46241;BME280;31961;52.416;-0.732;2022-10-28T01:06:09;100326.52;;;15.51;59.47
46241;BME280;31961;52.416;-0.732;2022-10-28T01:08:37;100327.77;;;15.77;59.57
46241;BME280;31961;52.416;-0.732;2022-10-28T01:11:31;100323.97;;;15.71;59.09
46241;BME280;31961;52.416;-0.732;2022-10-28T01:14:17;100321.73;;;15.34;59.37
46241;BME280;31961;52.416;-0.732;2022-10-28T01:16:59;100320.26;;;15.47;58.29
46241;BME280;31961;52.416;-0.732;2022-10-28T01:19:50;100322.54;;;15.76;58.20
46241;BME280;31961;52.416;-0.732;2022-10-28T01:22:23;100328.71;;;15.65;58.06
46241;BME280;31961;52.416;-0.732;2022-10-28T01:25:15;100324.08;;;15.53;57.63
46241;BME280;31961;52.416;-0.732;2022-10-28T01:28:04;100318.19;;;15.69;56.90
46241;BME280;31961;52.416;-0.732;2022-10-28T01:33:18;100314.52;;;15.43;57.41
46241;BME280;31961;52.416;-0.732;2022-10-28T01:35:51;100308.38;;;15.50;57.10
46241;BME280;31961;52.416;-0.732;2022-10-28T01:38:28;100307.69;;;15.22;57.18
46241;BME280;31961;52.416;-0.732;2022-10-28T01:41:03;100307.35;;;14.56;59.60
46241;BME280;31961;52.416;-0.732;2022-10-28T01:43:37;100303.03;;;14.93;58.39
46241;BME280;31961;52.416;-0.732;2022-10-28T01:46:12;100297.58;;;15.44;57.77
46241;BME280;31961;52.416;-0.732;2022-10-28T01:48:43;100297.22;;;14.53;58.55
46241;BME280;31961;52.416;-0.732;2022-10-28T01:51:17;100297.34;;;15.02;57.79
46241;BME280;31961;52.416;-0.732;2022-10-28T01:53:49;100290.84;;;15.07;57.45
46241;BME280;31961;52.416;-0.732;2022-10-28T01:56:22;100298.37;;;15.05;57.41
46241;BME280;31961;52.416;-0.732;2022-10-28T01:58:51;100302.59;;;14.75;57.62
46241;BME280;31961;52.416;-0.732;2022-10-28T02:01:21;100298.85;;;14.92;57.30
46241;BME280;31961;52.416;-0.732;2022-10-28T02:03:50;100299.67;;;14.63;57.65
46241;BME280;31961;52.416;-0.732;2022-10-28T02:06:20;100294.73;;;14.60;58.01
46241;BME280;31961;52.416;-0.732;2022-10-28T02:08:58;100291.38;;;14.93;57.36
46241;BME280;31961;52.416;-0.732;2022-10-28T02:11:37;100292.09;;;14.71;57.69
46241;BME280;31961;52.416;-0.732;2022-10-28T02:14:20;100278.03;;;14.31;57.99
46241;BME280;31961;52.416;-0.732;2022-10-28T02:16:55;100278.74;;;14.89;57.25
46241;BME280;31961;52.416;-0.732;2022-10-28T02:19:32;100283.79;;;14.70;57.41
46241;BME280;31961;52.416;-0.732;2022-10-28T02:22:11;100274.50;;;14.66;57.04
46241;BME280;31961;52.416;-0.732;2022-10-28T02:24:48;100270.11;;;14.71;56.76
46241;BME280;31961;52.416;-0.732;2022-10-28T02:27:20;100268.16;;;14.28;57.85
46241;BME280;31961;52.416;-0.732;2022-10-28T02:29:56;100264.03;;;13.80;59.36
46241;BME280;31961;52.416;-0.732;2022-10-28T02:32:29;100258.15;;;14.13;57.98
46241;BME280;31961;52.416;-0.732;2022-10-28T02:35:00;100249.43;;;14.02;58.28
46241;BME280;31961;52.416;-0.732;2022-10-28T02:37:32;100243.39;;;14.28;58.20
46241;BME280;31961;52.416;-0.732;2022-10-28T02:40:06;100239.60;;;14.47;58.08
46241;BME280;31961;52.416;-0.732;2022-10-28T02:42:37;100223.32;;;13.91;58.44
46241;BME280;31961;52.416;-0.732;2022-10-28T02:45:12;100221.65;;;14.29;58.12
46241;BME280;31961;52.416;-0.732;2022-10-28T02:47:45;100221.06;;;14.07;58.98
46241;BME280;31961;52.416;-0.732;2022-10-28T02:50:16;100224.38;;;14.03;58.75
46241;BME280;31961;52.416;-0.732;2022-10-28T02:52:49;100228.72;;;14.26;58.47
46241;BME280;31961;52.416;-0.732;2022-10-28T02:55:20;100222.54;;;14.57;57.77
46241;BME280;31961;52.416;-0.732;2022-10-28T02:57:49;100221.72;;;14.42;58.04
46241;BME280;31961;52.416;-0.732;2022-10-28T03:00:20;100215.90;;;14.54;59.56
46241;BME280;31961;52.416;-0.732;2022-10-28T03:02:47;100214.56;;;14.12;61.06
46241;BME280;31961;52.416;-0.732;2022-10-28T03:05:14;100216.02;;;14.42;59.93
46241;BME280;31961;52.416;-0.732;2022-10-28T03:07:42;100206.49;;;14.79;59.34
46241;BME280;31961;52.416;-0.732;2022-10-28T03:10:09;100195.63;;;14.42;60.38
46241;BME280;31961;52.416;-0.732;2022-10-28T03:12:36;100199.40;;;14.71;60.26
46241;BME280;31961;52.416;-0.732;2022-10-28T03:15:04;100199.45;;;13.73;62.87
46241;BME280;31961;52.416;-0.732;2022-10-28T03:17:31;100200.24;;;14.30;62.11
46241;BME280;31961;52.416;-0.732;2022-10-28T03:19:59;100195.40;;;13.87;64.26
46241;BME280;31961;52.416;-0.732;2022-10-28T03:22:26;100192.41;;;14.28;64.26
46241;BME280;31961;52.416;-0.732;2022-10-28T03:24:53;100194.19;;;14.27;64.10
46241;BME280;31961;52.416;-0.732;2022-10-28T03:27:20;100191.89;;;14.30;64.25
46241;BME280;31961;52.416;-0.732;2022-10-28T03:29:48;100188.07;;;14.31;63.97
46241;BME280;31961;52.416;-0.732;2022-10-28T03:32:15;100181.87;;;13.72;65.63
46241;BME280;31961;52.416;-0.732;2022-10-28T03:34:42;100164.70;;;14.10;65.09
46241;BME280;31961;52.416;-0.732;2022-10-28T03:37:09;100163.75;;;14.37;64.95
46241;BME280;31961;52.416;-0.732;2022-10-28T03:39:36;100160.24;;;14.72;63.92
46241;BME280;31961;52.416;-0.732;2022-10-28T03:42:04;100152.80;;;14.64;64.71
46241;BME280;31961;52.416;-0.732;2022-10-28T03:44:31;100144.90;;;14.50;64.54
46241;BME280;31961;52.416;-0.732;2022-10-28T03:46:59;100139.36;;;14.44;64.89
46241;BME280;31961;52.416;-0.732;2022-10-28T03:49:27;100135.58;;;14.39;64.34
46241;BME280;31961;52.416;-0.732;2022-10-28T03:51:58;100134.96;;;14.37;64.91
46241;BME280;31961;52.416;-0.732;2022-10-28T03:54:26;100133.34;;;14.34;64.67
46241;BME280;31961;52.416;-0.732;2022-10-28T03:56:53;100134.47;;;14.56;64.17
46241;BME280;31961;52.416;-0.732;2022-10-28T03:59:20;100132.85;;;14.47;64.12
46241;BME280;31961;52.416;-0.732;2022-10-28T04:01:47;100132.21;;;14.22;64.17
46241;BME280;31961;52.416;-0.732;2022-10-28T04:04:15;100128.62;;;15.30;62.39
46241;BME280;31961;52.416;-0.732;2022-10-28T04:06:42;100128.77;;;14.93;61.96
46241;BME280;31961;52.416;-0.732;2022-10-28T04:09:09;100125.91;;;15.35;61.36
46241;BME280;31961;52.416;-0.732;2022-10-28T04:11:36;100124.27;;;15.56;61.24
46241;BME280;31961;52.416;-0.732;2022-10-28T04:14:04;100122.87;;;15.09;61.80
46241;BME280;31961;52.416;-0.732;2022-10-28T04:16:31;100121.68;;;15.19;61.75
46241;BME280;31961;52.416;-0.732;2022-10-28T04:18:59;100116.40;;;15.25;61.60
46241;BME280;31961;52.416;-0.732;2022-10-28T04:21:26;100110.49;;;14.93;61.57
46241;BME280;31961;52.416;-0.732;2022-10-28T04:23:53;100104.38;;;15.05;62.01
46241;BME280;31961;52.416;-0.732;2022-10-28T04:26:21;100104.02;;;15.14;61.92
46241;BME280;31961;52.416;-0.732;2022-10-28T04:28:48;100096.02;;;14.58;63.29
46241;BME280;31961;52.416;-0.732;2022-10-28T04:31:15;100093.66;;;14.25;64.21
46241;BME280;31961;52.416;-0.732;2022-10-28T04:33:42;100096.92;;;14.91;63.20
46241;BME280;31961;52.416;-0.732;2022-10-28T04:36:09;100090.62;;;15.21;62.38
46241;BME280;31961;52.416;-0.732;2022-10-28T04:38:36;100090.89;;;14.71;63.25
46241;BME280;31961;52.416;-0.732;2022-10-28T04:41:03;100090.14;;;14.28;64.90
46241;BME280;31961;52.416;-0.732;2022-10-28T04:43:30;100085.19;;;14.76;63.62
46241;BME280;31961;52.416;-0.732;2022-10-28T04:45:58;100079.44;;;14.42;65.01
46241;BME280;31961;52.416;-0.732;2022-10-28T04:48:25;100080.69;;;14.08;65.91
46241;BME280;31961;52.416;-0.732;2022-10-28T04:50:52;100077.07;;;14.36;66.69
46241;BME280;31961;52.416;-0.732;2022-10-28T04:53:19;100073.76;;;14.15;65.86
46241;BME280;31961;52.416;-0.732;2022-10-28T04:55:47;100072.68;;;14.95;65.42
46241;BME280;31961;52.416;-0.732;2022-10-28T04:58:14;100071.17;;;13.98;66.63
46241;BME280;31961;52.416;-0.732;2022-10-28T05:00:41;100072.34;;;14.19;66.86
46241;BME280;31961;52.416;-0.732;2022-10-28T05:03:08;100072.80;;;14.16;67.18
46241;BME280;31961;52.416;-0.732;2022-10-28T05:05:34;100072.56;;;14.41;67.39
46241;BME280;31961;52.416;-0.732;2022-10-28T05:08:01;100070.87;;;13.92;67.96
46241;BME280;31961;52.416;-0.732;2022-10-28T05:10:29;100077.65;;;14.04;67.37
46241;BME280;31961;52.416;-0.732;2022-10-28T05:12:56;100080.47;;;14.50;67.18
46241;BME280;31961;52.416;-0.732;2022-10-28T05:15:24;100082.37;;;14.23;67.69
46241;BME280;31961;52.416;-0.732;2022-10-28T05:17:52;100082.16;;;14.04;67.77
46241;BME280;31961;52.416;-0.732;2022-10-28T05:20:19;100080.19;;;14.17;67.37
46241;BME280;31961;52.416;-0.732;2022-10-28T05:22:47;100078.02;;;14.81;67.01
46241;BME280;31961;52.416;-0.732;2022-10-28T05:25:15;100077.16;;;14.45;67.08
46241;BME280;31961;52.416;-0.732;2022-10-28T05:27:42;100079.96;;;14.32;67.53
46241;BME280;31961;52.416;-0.732;2022-10-28T05:30:11;100085.37;;;14.62;67.46
46241;BME280;31961;52.416;-0.732;2022-10-28T05:32:39;100095.69;;;13.87;68.58
46241;BME280;31961;52.416;-0.732;2022-10-28T05:35:07;100090.49;;;14.56;67.05
46241;BME280;31961;52.416;-0.732;2022-10-28T05:37:34;100087.11;;;14.71;66.51
46241;BME280;31961;52.416;-0.732;2022-10-28T05:40:02;100084.48;;;14.73;66.27
46241;BME280;31961;52.416;-0.732;2022-10-28T05:42:30;100087.39;;;14.71;66.58
46241;BME280;31961;52.416;-0.732;2022-10-28T05:44:57;100075.36;;;14.32;67.10
46241;BME280;31961;52.416;-0.732;2022-10-28T05:47:24;100070.07;;;14.65;67.61
46241;BME280;31961;52.416;-0.732;2022-10-28T05:49:51;100068.23;;;14.15;68.06
46241;BME280;31961;52.416;-0.732;2022-10-28T05:52:18;100075.51;;;14.25;68.05
46241;BME280;31961;52.416;-0.732;2022-10-28T05:54:46;100077.52;;;14.42;67.28
46241;BME280;31961;52.416;-0.732;2022-10-28T05:57:13;100075.58;;;14.50;66.68
46241;BME280;31961;52.416;-0.732;2022-10-28T05:59:40;100068.76;;;14.54;66.63
46241;BME280;31961;52.416;-0.732;2022-10-28T06:02:12;100065.37;;;14.39;68.15
46241;BME280;31961;52.416;-0.732;2022-10-28T06:04:40;100063.95;;;14.19;67.37
46241;BME280;31961;52.416;-0.732;2022-10-28T06:07:08;100068.76;;;14.09;68.54
46241;BME280;31961;52.416;-0.732;2022-10-28T06:09:35;100071.73;;;14.47;68.01
46241;BME280;31961;52.416;-0.732;2022-10-28T06:12:02;100075.87;;;13.35;69.84
46241;BME280;31961;52.416;-0.732;2022-10-28T06:14:29;100080.46;;;13.96;68.79
46241;BME280;31961;52.416;-0.732;2022-10-28T06:16:56;100083.50;;;14.14;68.63
46241;BME280;31961;52.416;-0.732;2022-10-28T06:19:23;100083.58;;;14.17;68.94
46241;BME280;31961;52.416;-0.732;2022-10-28T06:21:51;100089.06;;;14.88;67.16
46241;BME280;31961;52.416;-0.732;2022-10-28T06:24:18;100094.21;;;13.94;68.67
46241;BME280;31961;52.416;-0.732;2022-10-28T06:26:45;100090.67;;;14.74;67.65
46241;BME280;31961;52.416;-0.732;2022-10-28T06:29:13;100099.31;;;13.27;70.34
46241;BME280;31961;52.416;-0.732;2022-10-28T06:31:40;100100.40;;;14.40;69.45
46241;BME280;31961;52.416;-0.732;2022-10-28T06:34:08;100098.24;;;14.38;68.77
46241;BME280;31961;52.416;-0.732;2022-10-28T06:36:35;100098.82;;;14.14;69.10
46241;BME280;31961;52.416;-0.732;2022-10-28T06:39:03;100072.34;;;14.03;69.73
46241;BME280;31961;52.416;-0.732;2022-10-28T06:41:31;100068.29;;;14.18;69.37
46241;BME280;31961;52.416;-0.732;2022-10-28T06:43:59;100070.75;;;14.52;68.24
46241;BME280;31961;52.416;-0.732;2022-10-28T06:46:27;100067.02;;;14.42;67.96
46241;BME280;31961;52.416;-0.732;2022-10-28T06:48:55;100054.83;;;14.60;67.44
46241;BME280;31961;52.416;-0.732;2022-10-28T06:51:23;100062.73;;;14.59;66.76
46241;BME280;31961;52.416;-0.732;2022-10-28T06:53:50;100067.92;;;14.64;67.15
46241;BME280;31961;52.416;-0.732;2022-10-28T06:56:18;100055.53;;;14.88;65.94
46241;BME280;31961;52.416;-0.732;2022-10-28T06:58:49;100036.63;;;14.29;67.63
46241;BME280;31961;52.416;-0.732;2022-10-28T07:01:17;100045.95;;;14.54;67.45
46241;BME280;31961;52.416;-0.732;2022-10-28T07:03:45;100051.28;;;14.46;67.43
46241;BME280;31961;52.416;-0.732;2022-10-28T07:06:13;100043.64;;;15.01;66.99
46241;BME280;31961;52.416;-0.732;2022-10-28T07:08:41;100057.37;;;14.09;68.44
46241;BME280;31961;52.416;-0.732;2022-10-28T07:11:09;100065.98;;;14.30;68.20
46241;BME280;31961;52.416;-0.732;2022-10-28T07:13:37;100069.70;;;14.36;67.92
46241;BME280;31961;52.416;-0.732;2022-10-28T07:16:04;100071.06;;;14.77;66.82
46241;BME280;31961;52.416;-0.732;2022-10-28T07:18:31;100069.37;;;14.83;67.19
46241;BME280;31961;52.416;-0.732;2022-10-28T07:20:59;100055.52;;;15.12;65.90
46241;BME280;31961;52.416;-0.732;2022-10-28T07:23:27;100057.12;;;14.41;66.57
46241;BME280;31961;52.416;-0.732;2022-10-28T07:25:55;100047.15;;;14.93;66.58
46241;BME280;31961;52.416;-0.732;2022-10-28T07:28:24;100047.55;;;14.59;67.22
46241;BME280;31961;52.416;-0.732;2022-10-28T07:30:52;100057.37;;;14.80;66.88
46241;BME280;31961;52.416;-0.732;2022-10-28T07:33:20;100056.18;;;14.18;67.08
46241;BME280;31961;52.416;-0.732;2022-10-28T07:35:47;100062.17;;;14.44;67.85
46241;BME280;31961;52.416;-0.732;2022-10-28T07:38:14;100072.24;;;14.16;68.41
46241;BME280;31961;52.416;-0.732;2022-10-28T07:40:41;100076.31;;;13.71;69.56
46241;BME280;31961;52.416;-0.732;2022-10-28T07:43:09;100083.02;;;14.23;69.17
46241;BME280;31961;52.416;-0.732;2022-10-28T07:45:37;100082.75;;;13.35;73.10
46241;BME280;31961;52.416;-0.732;2022-10-28T07:48:05;100094.93;;;12.99;73.24
46241;BME280;31961;52.416;-0.732;2022-10-28T07:50:32;100086.55;;;14.00;72.47
46241;BME280;31961;52.416;-0.732;2022-10-28T07:53:00;100095.55;;;13.87;72.70
46241;BME280;31961;52.416;-0.732;2022-10-28T07:55:27;100102.53;;;13.35;72.83
46241;BME280;31961;52.416;-0.732;2022-10-28T07:57:55;100104.02;;;14.16;71.51
46241;BME280;31961;52.416;-0.732;2022-10-28T08:00:22;100121.77;;;13.04;73.82
46241;BME280;31961;52.416;-0.732;2022-10-28T08:02:49;100132.75;;;13.16;74.05
46241;BME280;31961;52.416;-0.732;2022-10-28T08:05:17;100130.54;;;13.55;74.05
46241;BME280;31961;52.416;-0.732;2022-10-28T08:07:44;100137.38;;;13.23;74.37
46241;BME280;31961;52.416;-0.732;2022-10-28T08:10:12;100137.23;;;13.93;72.70
46241;BME280;31961;52.416;-0.732;2022-10-28T08:12:39;100134.72;;;13.38;73.59
46241;BME280;31961;52.416;-0.732;2022-10-28T08:15:08;100132.32;;;13.81;71.86
46241;BME280;31961;52.416;-0.732;2022-10-28T08:17:35;100133.27;;;14.33;71.38
46241;BME280;31961;52.416;-0.732;2022-10-28T08:20:03;100145.73;;;13.78;71.45
46241;BME280;31961;52.416;-0.732;2022-10-28T08:22:31;100152.68;;;13.50;74.17
46241;BME280;31961;52.416;-0.732;2022-10-28T08:24:59;100150.48;;;14.15;72.56
46241;BME280;31961;52.416;-0.732;2022-10-28T08:27:27;100155.07;;;13.66;74.21
46241;BME280;31961;52.416;-0.732;2022-10-28T08:29:54;100166.87;;;13.56;75.01
46241;BME280;31961;52.416;-0.732;2022-10-28T08:32:21;100177.95;;;13.06;76.91
46241;BME280;31961;52.416;-0.732;2022-10-28T08:34:49;100181.93;;;13.23;76.12
46241;BME280;31961;52.416;-0.732;2022-10-28T08:37:16;100192.42;;;13.50;76.55
46241;BME280;31961;52.416;-0.732;2022-10-28T08:39:44;100204.83;;;13.34;76.83
46241;BME280;31961;52.416;-0.732;2022-10-28T08:42:27;100202.99;;;13.21;76.09
46241;BME280;31961;52.416;-0.732;2022-10-28T08:45:12;100205.91;;;13.11;76.18
46241;BME280;31961;52.416;-0.732;2022-10-28T08:47:50;100226.00;;;12.89;77.75
46241;BME280;31961;52.416;-0.732;2022-10-28T08:50:22;100231.88;;;13.23;77.17
46241;BME280;31961;52.416;-0.732;2022-10-28T08:52:54;100240.22;;;12.72;77.56
46241;BME280;31961;52.416;-0.732;2022-10-28T08:55:27;100229.90;;;13.47;74.98
46241;BME280;31961;52.416;-0.732;2022-10-28T08:57:58;100230.77;;;13.04;76.01
46241;BME280;31961;52.416;-0.732;2022-10-28T09:00:30;100243.65;;;13.00;76.17
46241;BME280;31961;52.416;-0.732;2022-10-28T09:03:10;100248.41;;;13.15;76.36
46241;BME280;31961;52.416;-0.732;2022-10-28T09:05:41;100259.24;;;12.54;76.65
46241;BME280;31961;52.416;-0.732;2022-10-28T09:08:18;100255.14;;;13.32;75.30
46241;BME280;31961;52.416;-0.732;2022-10-28T09:10:55;100262.50;;;12.98;75.93
46241;BME280;31961;52.416;-0.732;2022-10-28T09:13:33;100281.42;;;12.78;75.20
46241;BME280;31961;52.416;-0.732;2022-10-28T09:16:09;100285.02;;;13.10;75.16
46241;BME280;31961;52.416;-0.732;2022-10-28T09:18:49;100281.89;;;12.88;73.53
46241;BME280;31961;52.416;-0.732;2022-10-28T09:21:19;100290.97;;;13.25;73.41
46241;BME280;31961;52.416;-0.732;2022-10-28T09:23:54;100304.48;;;12.75;75.33
46241;BME280;31961;52.416;-0.732;2022-10-28T09:26:31;100304.48;;;12.83;75.49
46241;BME280;31961;52.416;-0.732;2022-10-28T09:29:10;100302.95;;;12.67;75.14
46241;BME280;31961;52.416;-0.732;2022-10-28T09:31:41;100308.38;;;13.36;72.99
46241;BME280;31961;52.416;-0.732;2022-10-28T09:34:19;100311.97;;;12.61;75.05
46241;BME280;31961;52.416;-0.732;2022-10-28T09:36:53;100315.58;;;12.96;75.42
46241;BME280;31961;52.416;-0.732;2022-10-28T09:39:28;100313.75;;;12.62;73.89
46241;BME280;31961;52.416;-0.732;2022-10-28T09:41:58;100315.04;;;12.83;74.30
46241;BME280;31961;52.416;-0.732;2022-10-28T09:44:38;100317.52;;;12.94;74.17
46241;BME280;31961;52.416;-0.732;2022-10-28T09:47:14;100314.47;;;12.53;74.30
46241;BME280;31961;52.416;-0.732;2022-10-28T09:49:42;100324.67;;;12.90;72.12
46241;BME280;31961;52.416;-0.732;2022-10-28T09:52:15;100319.94;;;13.05;71.07
46241;BME280;31961;52.416;-0.732;2022-10-28T09:54:49;100323.80;;;12.87;70.79
46241;BME280;31961;52.416;-0.732;2022-10-28T09:57:16;100332.57;;;12.52;71.10
46241;BME280;31961;52.416;-0.732;2022-10-28T09:59:44;100339.21;;;12.86;70.96
46241;BME280;31961;52.416;-0.732;2022-10-28T10:02:25;100340.86;;;12.58;70.62
46241;BME280;31961;52.416;-0.732;2022-10-28T10:04:54;100353.15;;;12.68;70.77
46241;BME280;31961;52.416;-0.732;2022-10-28T10:07:28;100361.91;;;13.07;70.72
46241;BME280;31961;52.416;-0.732;2022-10-28T10:09:57;100356.83;;;12.64;70.04
46241;BME280;31961;52.416;-0.732;2022-10-28T10:12:26;100360.51;;;12.88;69.32
46241;BME280;31961;52.416;-0.732;2022-10-28T10:14:55;100365.59;;;13.01;69.09
46241;BME280;31961;52.416;-0.732;2022-10-28T10:17:28;100378.24;;;12.72;68.97
46241;BME280;31961;52.416;-0.732;2022-10-28T10:19:58;100379.47;;;12.88;69.02
46241;BME280;31961;52.416;-0.732;2022-10-28T10:22:31;100383.75;;;13.57;67.33
46241;BME280;31961;52.416;-0.732;2022-10-28T10:24:59;100391.39;;;12.61;68.70
46241;BME280;31961;52.416;-0.732;2022-10-28T10:27:28;100401.38;;;12.51;69.89
46241;BME280;31961;52.416;-0.732;2022-10-28T10:29:56;100422.20;;;13.17;67.56
46241;BME280;31961;52.416;-0.732;2022-10-28T10:32:26;100421.78;;;12.69;67.17
46241;BME280;31961;52.416;-0.732;2022-10-28T10:34:59;100428.89;;;12.08;68.18
46241;BME280;31961;52.416;-0.732;2022-10-28T10:37:29;100431.98;;;12.44;66.06
46241;BME280;31961;52.416;-0.732;2022-10-28T10:40:04;100432.78;;;12.44;66.66
46241;BME280;31961;52.416;-0.732;2022-10-28T10:42:32;100431.48;;;12.88;65.83
46241;BME280;31961;52.416;-0.732;2022-10-28T10:45:09;100438.80;;;12.24;65.78
46241;BME280;31961;52.416;-0.732;2022-10-28T10:47:41;100445.67;;;12.57;66.69
46241;BME280;31961;52.416;-0.732;2022-10-28T10:50:20;100438.37;;;12.70;66.75
46241;BME280;31961;52.416;-0.732;2022-10-28T10:52:50;100440.91;;;12.28;67.51
46241;BME280;31961;52.416;-0.732;2022-10-28T10:55:31;100454.59;;;12.69;67.02
46241;BME280;31961;52.416;-0.732;2022-10-28T10:57:59;100450.93;;;12.76;66.27
46241;BME280;31961;52.416;-0.732;2022-10-28T11:00:31;100451.85;;;12.71;65.70
46241;BME280;31961;52.416;-0.732;2022-10-28T11:02:59;100452.37;;;12.74;65.43
46241;BME280;31961;52.416;-0.732;2022-10-28T11:05:27;100449.69;;;12.84;64.83
46241;BME280;31961;52.416;-0.732;2022-10-28T11:07:56;100450.75;;;12.56;64.07
46241;BME280;31961;52.416;-0.732;2022-10-28T11:10:26;100447.09;;;12.33;65.32
46241;BME280;31961;52.416;-0.732;2022-10-28T11:13:02;100462.23;;;12.66;65.21
46241;BME280;31961;52.416;-0.732;2022-10-28T11:15:30;100462.75;;;12.17;66.23
46241;BME280;31961;52.416;-0.732;2022-10-28T11:17:59;100456.43;;;12.39;65.71
46241;BME280;31961;52.416;-0.732;2022-10-28T11:20:30;100462.58;;;12.93;65.70
46241;BME280;31961;52.416;-0.732;2022-10-28T11:23:12;100466.67;;;12.81;65.44
46241;BME280;31961;52.416;-0.732;2022-10-28T11:25:45;100476.88;;;12.40;65.51
46241;BME280;31961;52.416;-0.732;2022-10-28T11:28:34;100462.34;;;13.00;64.36
46241;BME280;31961;52.416;-0.732;2022-10-28T11:31:18;100465.04;;;12.65;65.30
46241;BME280;31961;52.416;-0.732;2022-10-28T11:33:55;100470.72;;;12.43;65.12
46241;BME280;31961;52.416;-0.732;2022-10-28T11:36:36;100476.30;;;12.63;65.52
46241;BME280;31961;52.416;-0.732;2022-10-28T11:39:19;100489.12;;;12.89;65.24
46241;BME280;31961;52.416;-0.732;2022-10-28T11:41:57;100506.23;;;12.99;64.73
46241;BME280;31961;52.416;-0.732;2022-10-28T11:44:36;100498.67;;;12.66;65.01
46241;BME280;31961;52.416;-0.732;2022-10-28T11:47:19;100490.74;;;12.71;64.65
46241;BME280;31961;52.416;-0.732;2022-10-28T11:50:08;100487.96;;;12.83;64.61
46241;BME280;31961;52.416;-0.732;2022-10-28T11:52:52;100506.55;;;12.58;65.54
46241;BME280;31961;52.416;-0.732;2022-10-28T11:55:31;100514.09;;;12.72;64.77
46241;BME280;31961;52.416;-0.732;2022-10-28T11:58:06;100508.27;;;12.68;64.58
46241;BME280;31961;52.416;-0.732;2022-10-28T12:00:45;100511.87;;;12.61;64.40
46241;BME280;31961;52.416;-0.732;2022-10-28T12:03:30;100516.63;;;12.94;63.79
46241;BME280;31961;52.416;-0.732;2022-10-28T12:06:07;100503.54;;;13.10;63.92
46241;BME280;31961;52.416;-0.732;2022-10-28T12:08:43;100509.81;;;12.87;63.51
46241;BME280;31961;52.416;-0.732;2022-10-28T12:11:24;100510.42;;;12.49;63.89
46241;BME280;31961;52.416;-0.732;2022-10-28T12:14:02;100522.51;;;13.13;61.66
46241;BME280;31961;52.416;-0.732;2022-10-28T12:16:39;100523.35;;;12.82;60.98
46241;BME280;31961;52.416;-0.732;2022-10-28T12:19:11;100531.17;;;13.20;61.12
46241;BME280;31961;52.416;-0.732;2022-10-28T12:21:43;100530.38;;;13.49;60.22
46241;BME280;31961;52.416;-0.732;2022-10-28T12:24:14;100527.57;;;14.43;59.11
46241;BME280;31961;52.416;-0.732;2022-10-28T12:26:44;100535.52;;;13.92;56.61
46241;BME280;31961;52.416;-0.732;2022-10-28T12:29:19;100547.03;;;13.58;57.21
46241;BME280;31961;52.416;-0.732;2022-10-28T12:31:52;100549.24;;;13.28;59.14
46241;BME280;31961;52.416;-0.732;2022-10-28T12:34:29;100558.65;;;12.85;60.82
46241;BME280;31961;52.416;-0.732;2022-10-28T12:37:01;100549.03;;;12.96;59.52
46241;BME280;31961;52.416;-0.732;2022-10-28T12:39:33;100541.98;;;13.30;59.33
46241;BME280;31961;52.416;-0.732;2022-10-28T12:42:08;100549.45;;;13.61;58.92
46241;BME280;31961;52.416;-0.732;2022-10-28T12:44:39;100550.75;;;12.93;59.99
46241;BME280;31961;52.416;-0.732;2022-10-28T12:47:15;100562.71;;;13.25;60.10
46241;BME280;31961;52.416;-0.732;2022-10-28T12:49:49;100574.10;;;13.73;59.34
46241;BME280;31961;52.416;-0.732;2022-10-28T12:52:29;100581.28;;;13.63;58.12
46241;BME280;31961;52.416;-0.732;2022-10-28T12:55:05;100587.64;;;13.25;58.10
46241;BME280;31961;52.416;-0.732;2022-10-28T12:57:37;100594.57;;;13.20;59.27
46241;BME280;31961;52.416;-0.732;2022-10-28T13:00:16;100598.83;;;13.36;58.70
46241;BME280;31961;52.416;-0.732;2022-10-28T13:02:50;100595.09;;;13.12;58.85